sensor_id;sensor_type;location;lat;lon;timestamp;P1;durP1;ratioP1;P2;durP2;ratioP2
21420;SDS011;10871;50.144;8.428;2023-02-15T00:02:26;370.70;;;43.20;;
21420;SDS011;10871;50.144;8.428;2023-02-15T00:04:53;600.03;;;49.60;;
21420;SDS011;10871;50.144;8.428;2023-02-15T00:07:19;378.25;;;45.17;;
21420;SDS011;10871;50.144;8.428;2023-02-15T00:09:46;459.20;;;46.88;;
21420;SDS011;10871;50.144;8.428;2023-02-15T00:12:13;416.10;;;47.78;;
21420;SDS011;10871;50.144;8.428;2023-02-15T00:14:39;522.08;;;48.35;;
21420;SDS011;10871;50.144;8.428;2023-02-15T00:17:06;493.23;;;47.58;;
21420;SDS011;10871;50.144;8.428;2023-02-15T00:19:32;442.13;;;49.17;;
21420;SDS011;10871;50.144;8.428;2023-02-15T00:21:58;518.92;;;48.30;;
21420;SDS011;10871;50.144;8.428;2023-02-15T00:24:25;638.85;;;54.03;;
21420;SDS011;10871;50.144;8.428;2023-02-15T00:26:51;634.95;;;52.50;;
21420;SDS011;10871;50.144;8.428;2023-02-15T00:29:18;597.33;;;52.13;;
21420;SDS011;10871;50.144;8.428;2023-02-15T00:31:45;497.08;;;51.58;;
21420;SDS011;10871;50.144;8.428;2023-02-15T00:34:22;605.45;;;52.47;;
21420;SDS011;10871;50.144;8.428;2023-02-15T00:36:48;713.08;;;57.90;;
21420;SDS011;10871;50.144;8.428;2023-02-15T00:39:15;645.40;;;56.13;;
21420;SDS011;10871;50.144;8.428;2023-02-15T00:41:42;656.05;;;57.13;;
21420;SDS011;10871;50.144;8.428;2023-02-15T00:44:09;738.70;;;59.70;;
21420;SDS011;10871;50.144;8.428;2023-02-15T00:46:35;770.83;;;59.65;;
21420;SDS011;10871;50.144;8.428;2023-02-15T00:49:02;629.85;;;54.70;;
21420;SDS011;10871;50.144;8.428;2023-02-15T00:51:29;746.40;;;58.40;;
21420;SDS011;10871;50.144;8.428;2023-02-15T00:53:56;577.85;;;54.47;;
21420;SDS011;10871;50.144;8.428;2023-02-15T00:56:22;743.17;;;60.20;;
21420;SDS011;10871;50.144;8.428;2023-02-15T00:58:48;465.90;;;51.00;;
21420;SDS011;10871;50.144;8.428;2023-02-15T01:01:16;592.60;;;55.53;;
21420;SDS011;10871;50.144;8.428;2023-02-15T01:03:43;459.20;;;50.22;;
21420;SDS011;10871;50.144;8.428;2023-02-15T01:06:10;441.52;;;48.13;;
21420;SDS011;10871;50.144;8.428;2023-02-15T01:08:36;351.73;;;46.67;;
21420;SDS011;10871;50.144;8.428;2023-02-15T01:11:04;542.38;;;50.38;;
21420;SDS011;10871;50.144;8.428;2023-02-15T01:13:31;361.38;;;44.75;;
21420;SDS011;10871;50.144;8.428;2023-02-15T01:15:58;418.95;;;46.47;;
21420;SDS011;10871;50.144;8.428;2023-02-15T01:18:25;567.00;;;49.88;;
21420;SDS011;10871;50.144;8.428;2023-02-15T01:20:51;387.20;;;46.33;;
21420;SDS011;10871;50.144;8.428;2023-02-15T01:23:18;540.58;;;50.08;;
21420;SDS011;10871;50.144;8.428;2023-02-15T01:25:45;459.25;;;49.22;;
21420;SDS011;10871;50.144;8.428;2023-02-15T01:28:11;431.00;;;48.03;;
21420;SDS011;10871;50.144;8.428;2023-02-15T01:30:38;736.00;;;55.50;;
21420;SDS011;10871;50.144;8.428;2023-02-15T01:33:04;603.53;;;53.47;;
21420;SDS011;10871;50.144;8.428;2023-02-15T01:35:31;715.75;;;57.00;;
21420;SDS011;10871;50.144;8.428;2023-02-15T01:37:57;708.28;;;58.75;;
21420;SDS011;10871;50.144;8.428;2023-02-15T01:40:24;599.60;;;54.83;;
21420;SDS011;10871;50.144;8.428;2023-02-15T01:42:54;759.33;;;62.38;;
21420;SDS011;10871;50.144;8.428;2023-02-15T01:45:25;427.85;;;52.33;;
21420;SDS011;10871;50.144;8.428;2023-02-15T01:50:41;694.22;;;55.78;;
21420;SDS011;10871;50.144;8.428;2023-02-15T01:53:13;569.17;;;50.97;;
21420;SDS011;10871;50.144;8.428;2023-02-15T01:55:58;683.63;;;57.38;;
21420;SDS011;10871;50.144;8.428;2023-02-15T01:58:25;595.75;;;52.80;;
21420;SDS011;10871;50.144;8.428;2023-02-15T02:00:53;545.10;;;52.05;;
21420;SDS011;10871;50.144;8.428;2023-02-15T02:03:22;643.85;;;52.22;;
21420;SDS011;10871;50.144;8.428;2023-02-15T02:05:50;492.48;;;49.88;;
21420;SDS011;10871;50.144;8.428;2023-02-15T02:08:16;753.97;;;59.58;;
21420;SDS011;10871;50.144;8.428;2023-02-15T02:10:42;633.63;;;56.63;;
21420;SDS011;10871;50.144;8.428;2023-02-15T02:13:09;661.17;;;57.05;;
21420;SDS011;10871;50.144;8.428;2023-02-15T02:15:44;721.00;;;58.17;;
21420;SDS011;10871;50.144;8.428;2023-02-15T02:21:02;745.35;;;58.67;;
21420;SDS011;10871;50.144;8.428;2023-02-15T02:34:32;944.38;;;66.50;;
21420;SDS011;10871;50.144;8.428;2023-02-15T02:39:57;629.17;;;60.13;;
21420;SDS011;10871;50.144;8.428;2023-02-15T02:42:35;711.10;;;58.15;;
21420;SDS011;10871;50.144;8.428;2023-02-15T02:45:06;627.47;;;59.50;;
21420;SDS011;10871;50.144;8.428;2023-02-15T02:47:39;566.88;;;52.95;;
21420;SDS011;10871;50.144;8.428;2023-02-15T02:50:09;722.67;;;60.83;;
21420;SDS011;10871;50.144;8.428;2023-02-15T02:55:03;511.73;;;51.25;;
21420;SDS011;10871;50.144;8.428;2023-02-15T02:57:30;748.30;;;62.80;;
21420;SDS011;10871;50.144;8.428;2023-02-15T02:59:58;865.53;;;67.75;;
21420;SDS011;10871;50.144;8.428;2023-02-15T03:02:29;555.38;;;51.95;;
21420;SDS011;10871;50.144;8.428;2023-02-15T03:04:59;550.38;;;52.50;;
21420;SDS011;10871;50.144;8.428;2023-02-15T03:07:30;486.55;;;51.35;;
21420;SDS011;10871;50.144;8.428;2023-02-15T03:09:59;661.70;;;56.40;;
21420;SDS011;10871;50.144;8.428;2023-02-15T03:12:28;642.45;;;54.60;;
21420;SDS011;10871;50.144;8.428;2023-02-15T03:14:57;499.52;;;51.38;;
21420;SDS011;10871;50.144;8.428;2023-02-15T03:17:27;674.22;;;58.35;;
21420;SDS011;10871;50.144;8.428;2023-02-15T03:19:55;739.60;;;60.30;;
21420;SDS011;10871;50.144;8.428;2023-02-15T03:22:25;470.85;;;52.78;;
21420;SDS011;10871;50.144;8.428;2023-02-15T03:27:36;869.47;;;66.72;;
21420;SDS011;10871;50.144;8.428;2023-02-15T03:30:04;684.50;;;57.05;;
21420;SDS011;10871;50.144;8.428;2023-02-15T03:32:32;573.00;;;53.28;;
21420;SDS011;10871;50.144;8.428;2023-02-15T03:34:59;598.88;;;53.80;;
21420;SDS011;10871;50.144;8.428;2023-02-15T03:40:02;519.22;;;51.58;;
21420;SDS011;10871;50.144;8.428;2023-02-15T03:42:53;773.42;;;58.40;;
21420;SDS011;10871;50.144;8.428;2023-02-15T03:45:24;716.45;;;57.30;;
21420;SDS011;10871;50.144;8.428;2023-02-15T03:47:51;668.28;;;58.42;;
21420;SDS011;10871;50.144;8.428;2023-02-15T03:50:19;792.00;;;61.65;;
21420;SDS011;10871;50.144;8.428;2023-02-15T03:53:06;824.58;;;59.58;;
21420;SDS011;10871;50.144;8.428;2023-02-15T03:55:34;861.45;;;73.57;;
21420;SDS011;10871;50.144;8.428;2023-02-15T03:58:00;797.58;;;64.80;;
21420;SDS011;10871;50.144;8.428;2023-02-15T04:00:49;694.53;;;62.10;;
21420;SDS011;10871;50.144;8.428;2023-02-15T04:03:42;943.78;;;70.05;;
21420;SDS011;10871;50.144;8.428;2023-02-15T04:06:10;690.72;;;59.03;;
21420;SDS011;10871;50.144;8.428;2023-02-15T04:08:37;356.48;;;44.67;;
21420;SDS011;10871;50.144;8.428;2023-02-15T04:11:22;287.48;;;45.80;;
21420;SDS011;10871;50.144;8.428;2023-02-15T04:13:48;473.65;;;49.30;;
21420;SDS011;10871;50.144;8.428;2023-02-15T04:16:22;421.20;;;48.72;;
21420;SDS011;10871;50.144;8.428;2023-02-15T04:18:49;421.80;;;48.40;;
21420;SDS011;10871;50.144;8.428;2023-02-15T04:21:34;483.23;;;50.38;;
21420;SDS011;10871;50.144;8.428;2023-02-15T04:24:19;553.15;;;54.53;;
21420;SDS011;10871;50.144;8.428;2023-02-15T04:27:04;499.27;;;54.08;;
21420;SDS011;10871;50.144;8.428;2023-02-15T04:29:31;520.85;;;53.58;;
21420;SDS011;10871;50.144;8.428;2023-02-15T04:31:58;545.58;;;54.17;;
21420;SDS011;10871;50.144;8.428;2023-02-15T04:34:25;516.28;;;53.80;;
21420;SDS011;10871;50.144;8.428;2023-02-15T04:36:52;550.50;;;54.97;;
21420;SDS011;10871;50.144;8.428;2023-02-15T04:39:18;903.00;;;73.80;;
21420;SDS011;10871;50.144;8.428;2023-02-15T04:41:45;704.58;;;60.67;;
21420;SDS011;10871;50.144;8.428;2023-02-15T04:44:11;729.33;;;62.15;;
21420;SDS011;10871;50.144;8.428;2023-02-15T04:46:38;928.42;;;69.88;;
21420;SDS011;10871;50.144;8.428;2023-02-15T04:49:04;1047.63;;;73.15;;
21420;SDS011;10871;50.144;8.428;2023-02-15T04:51:30;979.08;;;73.78;;
21420;SDS011;10871;50.144;8.428;2023-02-15T04:53:56;761.30;;;67.15;;
21420;SDS011;10871;50.144;8.428;2023-02-15T04:56:23;758.38;;;68.32;;
21420;SDS011;10871;50.144;8.428;2023-02-15T04:58:49;1140.32;;;83.03;;
21420;SDS011;10871;50.144;8.428;2023-02-15T05:01:16;1107.65;;;83.22;;
21420;SDS011;10871;50.144;8.428;2023-02-15T05:03:43;960.92;;;72.05;;
21420;SDS011;10871;50.144;8.428;2023-02-15T05:06:09;1019.97;;;75.53;;
21420;SDS011;10871;50.144;8.428;2023-02-15T05:08:35;921.72;;;77.57;;
21420;SDS011;10871;50.144;8.428;2023-02-15T05:11:02;1062.05;;;80.07;;
21420;SDS011;10871;50.144;8.428;2023-02-15T05:13:28;986.47;;;79.53;;
21420;SDS011;10871;50.144;8.428;2023-02-15T05:15:54;1062.13;;;81.07;;
21420;SDS011;10871;50.144;8.428;2023-02-15T05:18:21;1157.90;;;87.47;;
21420;SDS011;10871;50.144;8.428;2023-02-15T05:20:48;1035.57;;;78.05;;
21420;SDS011;10871;50.144;8.428;2023-02-15T05:23:15;1043.53;;;78.18;;
21420;SDS011;10871;50.144;8.428;2023-02-15T05:25:45;935.97;;;79.90;;
21420;SDS011;10871;50.144;8.428;2023-02-15T05:28:30;937.05;;;76.68;;
21420;SDS011;10871;50.144;8.428;2023-02-15T05:31:04;1082.22;;;84.40;;
21420;SDS011;10871;50.144;8.428;2023-02-15T05:33:31;1115.88;;;83.32;;
21420;SDS011;10871;50.144;8.428;2023-02-15T05:35:57;1118.90;;;85.28;;
21420;SDS011;10871;50.144;8.428;2023-02-15T05:38:24;929.17;;;73.72;;
21420;SDS011;10871;50.144;8.428;2023-02-15T05:40:51;1092.47;;;80.28;;
21420;SDS011;10871;50.144;8.428;2023-02-15T05:43:18;1232.03;;;89.47;;
21420;SDS011;10871;50.144;8.428;2023-02-15T05:45:45;1265.85;;;95.03;;
21420;SDS011;10871;50.144;8.428;2023-02-15T05:48:11;1144.55;;;88.10;;
21420;SDS011;10871;50.144;8.428;2023-02-15T05:50:37;833.80;;;68.78;;
21420;SDS011;10871;50.144;8.428;2023-02-15T05:53:04;844.97;;;69.55;;
21420;SDS011;10871;50.144;8.428;2023-02-15T05:55:30;970.53;;;72.38;;
21420;SDS011;10871;50.144;8.428;2023-02-15T05:57:56;897.50;;;71.88;;
21420;SDS011;10871;50.144;8.428;2023-02-15T06:00:23;1015.95;;;81.00;;
21420;SDS011;10871;50.144;8.428;2023-02-15T06:02:51;870.80;;;69.05;;
21420;SDS011;10871;50.144;8.428;2023-02-15T06:05:17;976.50;;;73.45;;
21420;SDS011;10871;50.144;8.428;2023-02-15T06:07:43;1065.18;;;75.43;;
21420;SDS011;10871;50.144;8.428;2023-02-15T06:10:11;922.35;;;71.80;;
21420;SDS011;10871;50.144;8.428;2023-02-15T06:12:37;997.88;;;70.45;;
21420;SDS011;10871;50.144;8.428;2023-02-15T06:15:03;994.83;;;72.78;;
21420;SDS011;10871;50.144;8.428;2023-02-15T06:17:30;656.50;;;60.42;;
21420;SDS011;10871;50.144;8.428;2023-02-15T06:19:56;1056.88;;;79.30;;
21420;SDS011;10871;50.144;8.428;2023-02-15T06:22:22;869.70;;;67.60;;
21420;SDS011;10871;50.144;8.428;2023-02-15T06:24:49;742.58;;;53.75;;
21420;SDS011;10871;50.144;8.428;2023-02-15T06:27:15;800.00;;;69.30;;
21420;SDS011;10871;50.144;8.428;2023-02-15T06:29:41;887.50;;;72.97;;
21420;SDS011;10871;50.144;8.428;2023-02-15T06:32:08;823.17;;;63.58;;
21420;SDS011;10871;50.144;8.428;2023-02-15T06:34:34;648.97;;;61.80;;
21420;SDS011;10871;50.144;8.428;2023-02-15T06:37:00;980.63;;;70.03;;
21420;SDS011;10871;50.144;8.428;2023-02-15T06:39:27;980.38;;;78.43;;
21420;SDS011;10871;50.144;8.428;2023-02-15T06:41:53;1007.05;;;74.72;;
21420;SDS011;10871;50.144;8.428;2023-02-15T06:44:19;1013.53;;;76.03;;
21420;SDS011;10871;50.144;8.428;2023-02-15T06:46:46;1020.63;;;74.05;;
21420;SDS011;10871;50.144;8.428;2023-02-15T06:49:12;1033.47;;;73.50;;
21420;SDS011;10871;50.144;8.428;2023-02-15T06:51:38;876.45;;;71.25;;
21420;SDS011;10871;50.144;8.428;2023-02-15T06:54:05;864.60;;;69.80;;
21420;SDS011;10871;50.144;8.428;2023-02-15T06:56:31;874.38;;;68.32;;
21420;SDS011;10871;50.144;8.428;2023-02-15T06:58:57;823.78;;;65.13;;
21420;SDS011;10871;50.144;8.428;2023-02-15T07:01:24;626.47;;;56.92;;
21420;SDS011;10871;50.144;8.428;2023-02-15T07:03:51;684.50;;;60.15;;
21420;SDS011;10871;50.144;8.428;2023-02-15T07:06:17;887.65;;;66.57;;
21420;SDS011;10871;50.144;8.428;2023-02-15T07:08:43;1010.40;;;75.80;;
21420;SDS011;10871;50.144;8.428;2023-02-15T07:11:10;819.67;;;63.33;;
21420;SDS011;10871;50.144;8.428;2023-02-15T07:13:55;907.63;;;65.75;;
21420;SDS011;10871;50.144;8.428;2023-02-15T07:16:21;746.35;;;61.33;;
21420;SDS011;10871;50.144;8.428;2023-02-15T07:18:48;851.90;;;64.40;;
21420;SDS011;10871;50.144;8.428;2023-02-15T07:21:14;569.70;;;49.13;;
21420;SDS011;10871;50.144;8.428;2023-02-15T07:23:41;687.22;;;58.67;;
21420;SDS011;10871;50.144;8.428;2023-02-15T07:26:07;772.72;;;65.13;;
21420;SDS011;10871;50.144;8.428;2023-02-15T07:28:34;412.48;;;39.95;;
21420;SDS011;10871;50.144;8.428;2023-02-15T07:31:01;524.50;;;52.33;;
21420;SDS011;10871;50.144;8.428;2023-02-15T07:33:28;639.28;;;56.88;;
21420;SDS011;10871;50.144;8.428;2023-02-15T07:35:56;694.25;;;57.45;;
21420;SDS011;10871;50.144;8.428;2023-02-15T07:38:29;785.08;;;62.58;;
21420;SDS011;10871;50.144;8.428;2023-02-15T07:41:03;617.90;;;52.70;;
21420;SDS011;10871;50.144;8.428;2023-02-15T07:43:32;636.45;;;52.58;;
21420;SDS011;10871;50.144;8.428;2023-02-15T07:46:02;567.55;;;51.42;;
21420;SDS011;10871;50.144;8.428;2023-02-15T07:48:29;598.97;;;51.85;;
21420;SDS011;10871;50.144;8.428;2023-02-15T07:50:59;554.70;;;49.85;;
21420;SDS011;10871;50.144;8.428;2023-02-15T07:53:26;497.35;;;46.72;;
21420;SDS011;10871;50.144;8.428;2023-02-15T07:55:52;660.28;;;55.17;;
21420;SDS011;10871;50.144;8.428;2023-02-15T07:58:19;518.58;;;48.63;;
21420;SDS011;10871;50.144;8.428;2023-02-15T08:00:45;572.78;;;50.45;;
21420;SDS011;10871;50.144;8.428;2023-02-15T08:03:32;531.03;;;48.17;;
21420;SDS011;10871;50.144;8.428;2023-02-15T08:05:58;494.63;;;46.17;;
21420;SDS011;10871;50.144;8.428;2023-02-15T08:08:26;496.63;;;46.13;;
21420;SDS011;10871;50.144;8.428;2023-02-15T08:10:59;410.42;;;43.13;;
21420;SDS011;10871;50.144;8.428;2023-02-15T08:13:45;271.15;;;36.97;;
21420;SDS011;10871;50.144;8.428;2023-02-15T08:16:22;294.30;;;36.65;;
21420;SDS011;10871;50.144;8.428;2023-02-15T08:18:48;396.92;;;42.67;;
21420;SDS011;10871;50.144;8.428;2023-02-15T08:21:15;323.52;;;40.83;;
21420;SDS011;10871;50.144;8.428;2023-02-15T08:23:41;432.52;;;45.42;;
21420;SDS011;10871;50.144;8.428;2023-02-15T08:26:07;438.48;;;44.40;;
21420;SDS011;10871;50.144;8.428;2023-02-15T08:28:34;325.83;;;39.28;;
21420;SDS011;10871;50.144;8.428;2023-02-15T08:31:12;286.30;;;37.88;;
21420;SDS011;10871;50.144;8.428;2023-02-15T08:33:40;447.77;;;44.65;;
21420;SDS011;10871;50.144;8.428;2023-02-15T08:36:10;278.23;;;35.28;;
21420;SDS011;10871;50.144;8.428;2023-02-15T08:38:37;332.65;;;40.53;;
21420;SDS011;10871;50.144;8.428;2023-02-15T08:43:42;333.52;;;39.50;;
21420;SDS011;10871;50.144;8.428;2023-02-15T08:46:11;323.40;;;38.45;;
21420;SDS011;10871;50.144;8.428;2023-02-15T08:48:38;349.13;;;40.45;;
21420;SDS011;10871;50.144;8.428;2023-02-15T08:51:12;250.82;;;37.67;;
21420;SDS011;10871;50.144;8.428;2023-02-15T08:53:39;327.83;;;38.42;;
21420;SDS011;10871;50.144;8.428;2023-02-15T08:56:06;298.95;;;36.35;;
21420;SDS011;10871;50.144;8.428;2023-02-15T08:58:32;262.17;;;36.63;;
21420;SDS011;10871;50.144;8.428;2023-02-15T09:00:59;286.92;;;38.90;;
21420;SDS011;10871;50.144;8.428;2023-02-15T09:03:28;230.20;;;35.65;;
21420;SDS011;10871;50.144;8.428;2023-02-15T09:05:58;183.25;;;35.75;;
21420;SDS011;10871;50.144;8.428;2023-02-15T09:08:25;219.48;;;34.65;;
21420;SDS011;10871;50.144;8.428;2023-02-15T09:10:51;339.58;;;38.50;;
21420;SDS011;10871;50.144;8.428;2023-02-15T09:13:18;269.20;;;36.63;;
21420;SDS011;10871;50.144;8.428;2023-02-15T09:15:44;405.23;;;40.38;;
21420;SDS011;10871;50.144;8.428;2023-02-15T09:18:11;279.52;;;38.55;;
21420;SDS011;10871;50.144;8.428;2023-02-15T09:20:38;394.38;;;39.08;;
21420;SDS011;10871;50.144;8.428;2023-02-15T09:23:04;435.17;;;42.97;;
21420;SDS011;10871;50.144;8.428;2023-02-15T09:25:30;183.20;;;35.08;;
21420;SDS011;10871;50.144;8.428;2023-02-15T09:27:57;402.33;;;40.80;;
21420;SDS011;10871;50.144;8.428;2023-02-15T09:30:23;242.73;;;35.17;;
21420;SDS011;10871;50.144;8.428;2023-02-15T09:32:50;338.63;;;40.88;;
21420;SDS011;10871;50.144;8.428;2023-02-15T09:35:16;299.98;;;37.65;;
21420;SDS011;10871;50.144;8.428;2023-02-15T09:37:42;283.92;;;37.08;;
21420;SDS011;10871;50.144;8.428;2023-02-15T09:40:10;310.05;;;38.13;;
21420;SDS011;10871;50.144;8.428;2023-02-15T09:45:16;189.57;;;37.08;;
21420;SDS011;10871;50.144;8.428;2023-02-15T09:48:06;267.30;;;38.00;;
21420;SDS011;10871;50.144;8.428;2023-02-15T09:53:27;341.27;;;38.20;;
21420;SDS011;10871;50.144;8.428;2023-02-15T09:56:03;418.52;;;40.75;;
21420;SDS011;10871;50.144;8.428;2023-02-15T10:04:05;325.58;;;34.83;;
21420;SDS011;10871;50.144;8.428;2023-02-15T10:06:38;496.92;;;45.17;;
21420;SDS011;10871;50.144;8.428;2023-02-15T10:11:41;445.20;;;40.10;;
21420;SDS011;10871;50.144;8.428;2023-02-15T10:14:14;224.43;;;33.95;;
21420;SDS011;10871;50.144;8.428;2023-02-15T10:16:54;196.02;;;34.63;;
21420;SDS011;10871;50.144;8.428;2023-02-15T10:22:46;187.10;;;32.85;;
21420;SDS011;10871;50.144;8.428;2023-02-15T10:27:47;249.98;;;33.60;;
21420;SDS011;10871;50.144;8.428;2023-02-15T10:35:16;203.13;;;30.65;;
21420;SDS011;10871;50.144;8.428;2023-02-15T10:37:51;202.80;;;30.30;;
21420;SDS011;10871;50.144;8.428;2023-02-15T10:40:32;208.55;;;31.90;;
21420;SDS011;10871;50.144;8.428;2023-02-15T10:48:26;277.45;;;34.05;;
21420;SDS011;10871;50.144;8.428;2023-02-15T10:51:02;402.10;;;32.25;;
21420;SDS011;10871;50.144;8.428;2023-02-15T10:56:20;159.32;;;30.02;;
21420;SDS011;10871;50.144;8.428;2023-02-15T10:59:13;414.92;;;35.67;;
21420;SDS011;10871;50.144;8.428;2023-02-15T11:01:44;366.23;;;34.35;;
21420;SDS011;10871;50.144;8.428;2023-02-15T11:06:43;314.95;;;32.67;;
21420;SDS011;10871;50.144;8.428;2023-02-15T11:09:14;219.80;;;31.20;;
21420;SDS011;10871;50.144;8.428;2023-02-15T11:11:45;189.80;;;29.75;;
21420;SDS011;10871;50.144;8.428;2023-02-15T11:14:35;207.95;;;28.75;;
21420;SDS011;10871;50.144;8.428;2023-02-15T11:17:06;106.93;;;30.05;;
21420;SDS011;10871;50.144;8.428;2023-02-15T11:19:39;104.22;;;28.77;;
21420;SDS011;10871;50.144;8.428;2023-02-15T11:22:09;187.98;;;29.75;;
21420;SDS011;10871;50.144;8.428;2023-02-15T11:24:39;142.93;;;27.90;;
21420;SDS011;10871;50.144;8.428;2023-02-15T11:29:42;86.47;;;25.95;;
21420;SDS011;10871;50.144;8.428;2023-02-15T11:32:28;73.50;;;24.63;;
21420;SDS011;10871;50.144;8.428;2023-02-15T11:37:24;81.93;;;26.73;;
21420;SDS011;10871;50.144;8.428;2023-02-15T11:39:53;79.70;;;25.85;;
21420;SDS011;10871;50.144;8.428;2023-02-15T11:42:21;81.40;;;26.75;;
21420;SDS011;10871;50.144;8.428;2023-02-15T11:47:24;78.68;;;26.35;;
21420;SDS011;10871;50.144;8.428;2023-02-15T11:49:50;90.32;;;27.48;;
21420;SDS011;10871;50.144;8.428;2023-02-15T11:52:17;77.70;;;26.20;;
21420;SDS011;10871;50.144;8.428;2023-02-15T11:54:48;85.05;;;26.05;;
21420;SDS011;10871;50.144;8.428;2023-02-15T11:59:44;80.90;;;26.90;;
21420;SDS011;10871;50.144;8.428;2023-02-15T12:02:15;87.97;;;27.48;;
21420;SDS011;10871;50.144;8.428;2023-02-15T12:04:47;76.82;;;26.90;;
21420;SDS011;10871;50.144;8.428;2023-02-15T12:07:23;68.57;;;26.25;;
21420;SDS011;10871;50.144;8.428;2023-02-15T12:10:03;78.25;;;26.40;;
21420;SDS011;10871;50.144;8.428;2023-02-15T12:12:33;84.07;;;28.50;;
21420;SDS011;10871;50.144;8.428;2023-02-15T12:15:05;100.15;;;27.42;;
21420;SDS011;10871;50.144;8.428;2023-02-15T12:17:38;135.80;;;29.58;;
21420;SDS011;10871;50.144;8.428;2023-02-15T12:22:32;110.95;;;28.10;;
21420;SDS011;10871;50.144;8.428;2023-02-15T12:25:00;148.23;;;29.90;;
21420;SDS011;10871;50.144;8.428;2023-02-15T12:27:31;75.18;;;28.55;;
21420;SDS011;10871;50.144;8.428;2023-02-15T12:32:35;71.28;;;28.15;;
21420;SDS011;10871;50.144;8.428;2023-02-15T12:35:27;135.02;;;30.42;;
21420;SDS011;10871;50.144;8.428;2023-02-15T12:37:55;106.53;;;28.88;;
21420;SDS011;10871;50.144;8.428;2023-02-15T12:40:26;85.95;;;30.40;;
21420;SDS011;10871;50.144;8.428;2023-02-15T12:45:25;78.22;;;27.90;;
21420;SDS011;10871;50.144;8.428;2023-02-15T12:50:48;76.68;;;28.23;;
21420;SDS011;10871;50.144;8.428;2023-02-15T12:55:59;74.82;;;28.10;;
21420;SDS011;10871;50.144;8.428;2023-02-15T12:58:26;87.90;;;30.05;;
21420;SDS011;10871;50.144;8.428;2023-02-15T13:03:29;91.05;;;30.02;;
21420;SDS011;10871;50.144;8.428;2023-02-15T13:05:56;130.43;;;29.95;;
21420;SDS011;10871;50.144;8.428;2023-02-15T13:08:28;116.32;;;31.25;;
21420;SDS011;10871;50.144;8.428;2023-02-15T13:10:56;99.75;;;30.88;;
21420;SDS011;10871;50.144;8.428;2023-02-15T13:13:26;84.47;;;31.35;;
21420;SDS011;10871;50.144;8.428;2023-02-15T13:15:54;85.07;;;30.67;;
21420;SDS011;10871;50.144;8.428;2023-02-15T13:18:42;112.65;;;32.35;;
21420;SDS011;10871;50.144;8.428;2023-02-15T13:23:35;100.03;;;31.40;;
21420;SDS011;10871;50.144;8.428;2023-02-15T13:26:03;87.90;;;32.17;;
21420;SDS011;10871;50.144;8.428;2023-02-15T13:28:49;81.43;;;31.17;;
21420;SDS011;10871;50.144;8.428;2023-02-15T13:31:20;98.72;;;31.67;;
21420;SDS011;10871;50.144;8.428;2023-02-15T13:33:56;89.03;;;33.05;;
21420;SDS011;10871;50.144;8.428;2023-02-15T13:36:34;88.20;;;31.42;;
21420;SDS011;10871;50.144;8.428;2023-02-15T13:39:10;84.53;;;32.92;;
21420;SDS011;10871;50.144;8.428;2023-02-15T13:47:36;77.88;;;31.73;;
21420;SDS011;10871;50.144;8.428;2023-02-15T13:49:43;78.57;;;32.53;;
21420;SDS011;10871;50.144;8.428;2023-02-15T13:52:21;79.68;;;32.95;;
21420;SDS011;10871;50.144;8.428;2023-02-15T13:54:59;78.45;;;33.55;;
21420;SDS011;10871;50.144;8.428;2023-02-15T13:57:38;80.88;;;32.13;;
21420;SDS011;10871;50.144;8.428;2023-02-15T14:00:19;80.30;;;32.72;;
21420;SDS011;10871;50.144;8.428;2023-02-15T14:03:02;77.00;;;34.03;;
21420;SDS011;10871;50.144;8.428;2023-02-15T14:08:04;100.13;;;34.60;;
21420;SDS011;10871;50.144;8.428;2023-02-15T14:10:38;94.78;;;34.65;;
21420;SDS011;10871;50.144;8.428;2023-02-15T14:15:38;89.95;;;34.75;;
21420;SDS011;10871;50.144;8.428;2023-02-15T14:23:16;92.97;;;36.20;;
21420;SDS011;10871;50.144;8.428;2023-02-15T14:25:52;86.47;;;36.55;;
21420;SDS011;10871;50.144;8.428;2023-02-15T14:28:21;94.97;;;35.75;;
21420;SDS011;10871;50.144;8.428;2023-02-15T14:30:54;98.78;;;36.58;;
21420;SDS011;10871;50.144;8.428;2023-02-15T14:33:39;88.20;;;35.28;;
21420;SDS011;10871;50.144;8.428;2023-02-15T14:36:06;88.05;;;37.00;;
21420;SDS011;10871;50.144;8.428;2023-02-15T14:46:03;93.68;;;38.25;;
21420;SDS011;10871;50.144;8.428;2023-02-15T14:48:31;102.70;;;38.13;;
21420;SDS011;10871;50.144;8.428;2023-02-15T14:50:59;108.07;;;37.83;;
21420;SDS011;10871;50.144;8.428;2023-02-15T14:58:37;111.25;;;39.47;;
21420;SDS011;10871;50.144;8.428;2023-02-15T15:01:07;107.65;;;40.08;;
21420;SDS011;10871;50.144;8.428;2023-02-15T15:03:34;110.40;;;39.63;;
21420;SDS011;10871;50.144;8.428;2023-02-15T15:06:02;106.20;;;40.13;;
21420;SDS011;10871;50.144;8.428;2023-02-15T15:08:36;200.30;;;41.25;;
21420;SDS011;10871;50.144;8.428;2023-02-15T15:14:08;113.18;;;39.70;;
21420;SDS011;10871;50.144;8.428;2023-02-15T15:19:01;103.30;;;39.45;;
21420;SDS011;10871;50.144;8.428;2023-02-15T15:29:56;116.68;;;43.88;;
21420;SDS011;10871;50.144;8.428;2023-02-15T15:32:22;121.30;;;40.25;;
21420;SDS011;10871;50.144;8.428;2023-02-15T15:35:00;110.13;;;39.20;;
21420;SDS011;10871;50.144;8.428;2023-02-15T15:37:39;119.43;;;41.95;;
21420;SDS011;10871;50.144;8.428;2023-02-15T15:42:48;145.40;;;45.15;;
21420;SDS011;10871;50.144;8.428;2023-02-15T15:45:23;124.57;;;44.45;;
21420;SDS011;10871;50.144;8.428;2023-02-15T15:48:01;118.40;;;43.15;;
21420;SDS011;10871;50.144;8.428;2023-02-15T15:50:32;116.03;;;42.67;;
21420;SDS011;10871;50.144;8.428;2023-02-15T15:53:00;108.70;;;42.28;;
21420;SDS011;10871;50.144;8.428;2023-02-15T15:55:28;104.55;;;41.08;;
21420;SDS011;10871;50.144;8.428;2023-02-15T15:58:05;105.50;;;41.65;;
21420;SDS011;10871;50.144;8.428;2023-02-15T16:00:46;103.90;;;40.95;;
21420;SDS011;10871;50.144;8.428;2023-02-15T16:03:14;99.15;;;39.30;;
21420;SDS011;10871;50.144;8.428;2023-02-15T16:05:41;93.85;;;38.72;;
21420;SDS011;10871;50.144;8.428;2023-02-15T16:08:07;91.07;;;38.85;;
21420;SDS011;10871;50.144;8.428;2023-02-15T16:10:34;93.72;;;39.58;;
21420;SDS011;10871;50.144;8.428;2023-02-15T16:13:02;94.80;;;39.35;;
21420;SDS011;10871;50.144;8.428;2023-02-15T16:15:35;98.78;;;39.20;;
21420;SDS011;10871;50.144;8.428;2023-02-15T16:20:35;82.80;;;37.13;;
21420;SDS011;10871;50.144;8.428;2023-02-15T16:23:15;87.10;;;36.85;;
21420;SDS011;10871;50.144;8.428;2023-02-15T16:25:57;94.03;;;39.85;;
21420;SDS011;10871;50.144;8.428;2023-02-15T16:28:28;89.78;;;37.97;;
21420;SDS011;10871;50.144;8.428;2023-02-15T16:30:55;97.53;;;39.78;;
21420;SDS011;10871;50.144;8.428;2023-02-15T16:33:33;87.68;;;38.90;;
21420;SDS011;10871;50.144;8.428;2023-02-15T16:36:00;91.45;;;39.03;;
21420;SDS011;10871;50.144;8.428;2023-02-15T16:41:09;91.50;;;38.58;;
21420;SDS011;10871;50.144;8.428;2023-02-15T16:43:36;85.47;;;38.50;;
21420;SDS011;10871;50.144;8.428;2023-02-15T16:46:03;87.90;;;39.45;;
21420;SDS011;10871;50.144;8.428;2023-02-15T16:48:31;87.55;;;39.05;;
21420;SDS011;10871;50.144;8.428;2023-02-15T16:50:58;84.93;;;38.83;;